OINR  Ramsar Airport

Add Bookmark

Iran

Status IATA
Operational RZR
Latitude Longitude
36° 54' 35" N 50° 40' 46" E
36.909901 50.679600
Local (DST + 5) UTC (GMT + 4)
Sep 16, 2014 07:57 Sep 16, 2014 15:27
Sunrise-Sunset Local UTC
Begin Civil Twilight 06:23 01:53
Sunrise 06:49 02:19
Sunset 07:15 14:45
End Civil Twilight 07:41 15:11

Current Weather

METAR Observed VFR
OINR 161500Z 18004KT 9999 FEW030 26/18 Q1005 Tue, Sep 16, 2014 @ 15:00 UTC
(27 Minutes ago)
Visual Flight Rules
Wind Visibility Clouds Conditions
180° at 4 knots (7 kph) 10 km or more
  • Few at 3,000' AGL
  • No significant weather
Temperatures Readings Precipitation
Current Temp 26°C (79°F)
Dewpoint 18°C (64°F)
Humidity 61%
Altimeter 29.68"Hg
Sea Level Pressure 1005mb
None Recorded

Additional weather within a 92.6km radius of OINR

Map ICAO Location
OINN 75km E (111°)

24 Hour Weather History

Loading
-

24 Hour Weather Graphs

Loading
-

CheckWX.com is intended as a tool to help pilots better visualize weather data. It is not intended as a substitute for an official weather briefing obtained from a Flight Service Station. CheckWX.com does not meet the FAA requirements for an official pre-flight weather briefing. Therefore, it's important that pilots still call and obtain an official FSS pre-flight weather briefing.